createdAt,value
2022-08-17T00:02:26.233Z,59.75
2022-08-17T00:04:54.002Z,61.11
2022-08-17T00:07:20.985Z,60.34
2022-08-17T00:09:47.960Z,60.03
2022-08-17T00:12:41.391Z,59.82
2022-08-17T00:15:01.962Z,58.91
2022-08-17T00:17:29.222Z,58.15
2022-08-17T00:19:56.357Z,57.71
2022-08-17T00:22:32.785Z,57.29
2022-08-17T00:25:05.884Z,58.98
2022-08-17T00:27:33.752Z,59.39
2022-08-17T00:30:00.698Z,60.75
2022-08-17T00:33:12.525Z,60.72
2022-08-17T00:35:18.516Z,59.37
2022-08-17T00:37:45.457Z,59.15
2022-08-17T00:40:15.285Z,59.48
2022-08-17T00:42:44.497Z,60.36
2022-08-17T00:45:13.636Z,61.57
2022-08-17T00:47:41.037Z,62.82
2022-08-17T00:50:11.422Z,63.55
2022-08-17T00:52:56.089Z,63.17
2022-08-17T00:55:24.652Z,63.49
2022-08-17T00:57:55.872Z,62.92
2022-08-17T01:00:29.190Z,63.78
2022-08-17T01:03:10.483Z,65.34
2022-08-17T01:05:42.190Z,64.41
2022-08-17T01:08:13.427Z,65.66
2022-08-17T01:10:58.522Z,65.32
2022-08-17T01:13:40.782Z,65.49
2022-08-17T01:16:16.706Z,64.88
2022-08-17T01:18:45.780Z,64.18
2022-08-17T01:21:24.656Z,64.60
2022-08-17T01:23:52.110Z,64.82
2022-08-17T01:26:20.241Z,64.49
2022-08-17T01:28:53.934Z,63.48
2022-08-17T01:31:24.205Z,62.80
2022-08-17T01:33:51.325Z,62.06
2022-08-17T01:36:18.557Z,62.12
2022-08-17T01:38:45.643Z,62.01
2022-08-17T01:41:16.638Z,63.50
2022-08-17T01:43:55.033Z,63.97
2022-08-17T01:46:28.234Z,64.57
2022-08-17T01:48:57.724Z,64.05
2022-08-17T01:51:29.432Z,64.85
2022-08-17T01:53:59.254Z,65.66
2022-08-17T01:56:28.769Z,65.60
2022-08-17T01:58:56.335Z,65.29
2022-08-17T02:01:26.840Z,64.80
2022-08-17T02:03:59.658Z,64.20
2022-08-17T02:06:30.475Z,63.87
2022-08-17T02:09:03.093Z,63.53
2022-08-17T02:11:33.322Z,63.37
2022-08-17T02:14:03.472Z,63.34
2022-08-17T02:16:37.332Z,63.55
2022-08-17T02:19:15.949Z,63.65
2022-08-17T02:21:46.719Z,65.35
2022-08-17T02:24:58.461Z,67.11
2022-08-17T02:27:07.032Z,66.79
2022-08-17T02:29:34.051Z,66.61
2022-08-17T02:32:02.019Z,65.47
2022-08-17T02:34:30.172Z,65.97
2022-08-17T02:36:57.282Z,65.47
2022-08-17T02:39:24.413Z,64.83
2022-08-17T02:42:01.195Z,67.71
2022-08-17T02:44:39.316Z,66.80
2022-08-17T02:47:09.089Z,66.40
2022-08-17T02:49:36.322Z,65.62
2022-08-17T02:52:05.901Z,64.87
2022-08-17T02:54:41.566Z,64.46
2022-08-17T02:57:10.031Z,64.81
2022-08-17T02:59:42.370Z,65.32
2022-08-17T03:02:13.865Z,64.26
2022-08-17T03:04:40.849Z,64.08
2022-08-17T03:07:07.842Z,63.34
2022-08-17T03:09:35.384Z,63.35
2022-08-17T03:12:06.336Z,63.85
2022-08-17T03:14:34.547Z,62.71
2022-08-17T03:17:04.654Z,61.49
2022-08-17T03:19:31.727Z,62.22
2022-08-17T03:21:59.615Z,60.81
2022-08-17T03:24:46.518Z,60.26
2022-08-17T03:27:14.802Z,60.27
2022-08-17T03:29:41.698Z,61.81
2022-08-17T03:32:13.601Z,60.97
2022-08-17T03:34:40.790Z,62.70
2022-08-17T03:37:07.829Z,62.87
2022-08-17T03:39:35.141Z,62.38
2022-08-17T03:42:08.259Z,62.04
2022-08-17T03:44:57.864Z,62.52
2022-08-17T03:47:43.487Z,62.80
2022-08-17T03:50:30.424Z,62.83
2022-08-17T03:53:15.732Z,62.11
2022-08-17T03:56:01.346Z,61.89
2022-08-17T03:58:28.341Z,61.35
2022-08-17T04:00:55.407Z,60.79
2022-08-17T04:03:22.406Z,60.73
2022-08-17T04:05:49.288Z,60.50
2022-08-17T04:08:16.214Z,60.07
2022-08-17T04:10:45.248Z,58.71
2022-08-17T04:13:12.858Z,58.63
2022-08-17T04:15:41.527Z,59.02
2022-08-17T04:18:11.094Z,58.06
2022-08-17T04:20:38.235Z,56.98
2022-08-17T04:23:09.529Z,56.61
2022-08-17T04:25:40.157Z,56.28
2022-08-17T04:28:14.654Z,56.69
2022-08-17T04:30:45.266Z,57.01
2022-08-17T04:33:27.402Z,57.22
2022-08-17T04:35:58.420Z,56.02
2022-08-17T04:38:29.500Z,55.36
2022-08-17T04:41:16.137Z,55.94
2022-08-17T04:43:45.070Z,55.78
2022-08-17T04:46:17.693Z,55.54
2022-08-17T04:48:50.713Z,55.93
2022-08-17T04:51:21.745Z,55.53
2022-08-17T04:53:54.395Z,57.63
2022-08-17T04:56:22.391Z,55.74
2022-08-17T04:58:51.263Z,54.79
2022-08-17T05:01:23.749Z,53.83
2022-08-17T05:03:52.995Z,52.91
2022-08-17T05:06:20.164Z,51.70
2022-08-17T05:08:47.072Z,52.65
2022-08-17T05:11:14.638Z,53.19
2022-08-17T05:13:41.661Z,52.72
2022-08-17T05:16:09.264Z,53.02
2022-08-17T05:18:38.931Z,51.36
2022-08-17T05:21:06.814Z,50.17
2022-08-17T05:23:42.385Z,50.02
2022-08-17T05:26:25.474Z,49.99
2022-08-17T05:28:59.621Z,48.80
2022-08-17T05:31:29.600Z,48.80
2022-08-17T05:33:56.888Z,48.21
2022-08-17T05:36:37.870Z,49.01
2022-08-17T05:39:16.076Z,49.35
2022-08-17T05:41:46.739Z,48.73
2022-08-17T05:44:13.885Z,50.13
2022-08-17T05:46:43.865Z,49.58
2022-08-17T05:49:12.845Z,49.62
2022-08-17T05:51:42.812Z,49.39
2022-08-17T05:54:12.614Z,49.31
2022-08-17T05:57:25.896Z,50.25
2022-08-17T06:00:10.796Z,50.51
2022-08-17T06:02:48.202Z,50.43
2022-08-17T06:05:15.524Z,50.09
2022-08-17T06:08:10.066Z,50.01
2022-08-17T06:11:10.422Z,48.30
2022-08-17T06:13:59.815Z,46.45
2022-08-17T06:16:43.766Z,46.65
2022-08-17T06:19:20.645Z,45.39
2022-08-17T06:21:51.427Z,42.67
2022-08-17T06:24:27.591Z,42.28
2022-08-17T06:27:01.547Z,41.44
2022-08-17T06:29:52.649Z,41.30
2022-08-17T06:32:19.739Z,40.99
2022-08-17T06:34:47.857Z,40.16
2022-08-17T06:37:30.280Z,39.67
2022-08-17T06:40:15.956Z,38.80
2022-08-17T06:43:06.807Z,36.25
2022-08-17T06:45:49.586Z,34.08
2022-08-17T06:48:32.407Z,33.21
2022-08-17T06:51:09.956Z,32.25
2022-08-17T06:53:40.491Z,31.67
2022-08-17T06:56:13.911Z,31.81
2022-08-17T06:58:43.449Z,31.99
2022-08-17T07:01:26.947Z,30.88
2022-08-17T07:04:11.959Z,31.41
2022-08-17T07:06:45.286Z,31.84
2022-08-17T07:09:29.759Z,30.10
2022-08-17T07:12:05.428Z,29.50
2022-08-17T07:14:43.384Z,28.91
2022-08-17T07:17:18.475Z,28.28
2022-08-17T07:19:49.286Z,29.03
2022-08-17T07:22:18.888Z,30.65
2022-08-17T07:24:58.574Z,31.62
2022-08-17T07:27:30.823Z,31.14
2022-08-17T07:29:57.714Z,29.25
2022-08-17T07:32:31.710Z,30.37
2022-08-17T07:35:04.673Z,30.00
2022-08-17T07:37:33.475Z,30.62
2022-08-17T07:40:17.180Z,31.21
2022-08-17T07:43:03.308Z,31.46
2022-08-17T07:46:08.935Z,32.24
2022-08-17T07:48:39.150Z,32.19
2022-08-17T07:51:27.274Z,32.85
2022-08-17T07:54:14.014Z,32.04
2022-08-17T07:56:45.591Z,31.68
2022-08-17T07:59:23.686Z,32.29
2022-08-17T08:01:58.223Z,31.33
2022-08-17T08:05:01.614Z,31.42
2022-08-17T08:07:44.049Z,30.29
2022-08-17T08:10:42.774Z,30.70
2022-08-17T08:13:21.369Z,29.41
2022-08-17T08:15:54.266Z,28.72
2022-08-17T08:18:55.493Z,28.04
2022-08-17T08:21:33.562Z,27.74
2022-08-17T08:24:19.703Z,27.62
2022-08-17T08:27:08.175Z,26.17
2022-08-17T08:29:35.742Z,24.41
2022-08-17T08:32:34.891Z,24.53
2022-08-17T08:35:14.032Z,24.27
2022-08-17T08:37:46.633Z,24.50
2022-08-17T08:40:40.583Z,26.29
2022-08-17T08:43:07.499Z,24.55
2022-08-17T08:45:56.725Z,23.90
2022-08-17T08:48:46.276Z,23.10
2022-08-17T08:51:46.437Z,20.84
2022-08-17T08:54:15.898Z,21.38
2022-08-17T08:57:28.052Z,23.91
2022-08-17T09:00:21.355Z,23.29
2022-08-17T09:03:00.102Z,22.82
2022-08-17T09:06:32.576Z,23.57
2022-08-17T09:09:21.111Z,24.13
2022-08-17T09:12:02.497Z,22.08
2022-08-17T09:14:56.899Z,21.17
2022-08-17T09:17:43.410Z,23.81
2022-08-17T09:20:28.674Z,22.88
2022-08-17T09:23:08.313Z,22.46
2022-08-17T09:26:00.078Z,23.08
2022-08-17T09:28:39.609Z,23.92
2022-08-17T09:31:16.241Z,22.01
2022-08-17T09:33:47.240Z,23.31
2022-08-17T09:36:33.324Z,23.79
2022-08-17T09:39:03.743Z,23.75
2022-08-17T09:41:55.280Z,23.39
2022-08-17T09:44:31.072Z,22.26
2022-08-17T09:47:12.614Z,21.39
2022-08-17T09:49:57.000Z,21.92
2022-08-17T09:52:27.253Z,21.79
2022-08-17T09:54:56.943Z,21.10
2022-08-17T09:57:32.335Z,23.30
2022-08-17T10:00:26.268Z,21.86
2022-08-17T10:03:09.836Z,19.33
2022-08-17T10:05:56.329Z,19.10
2022-08-17T10:08:34.865Z,20.21
2022-08-17T10:11:45.728Z,20.02
2022-08-17T10:14:55.168Z,19.41
2022-08-17T10:17:33.347Z,20.08
2022-08-17T10:20:47.809Z,19.93
2022-08-17T10:23:45.920Z,19.19
2022-08-17T10:26:24.036Z,19.86
2022-08-17T10:29:06.798Z,18.90
2022-08-17T10:31:42.962Z,18.04
2022-08-17T10:34:28.248Z,18.65
2022-08-17T10:37:10.014Z,18.90
2022-08-17T10:39:57.429Z,18.39
2022-08-17T10:42:47.107Z,18.54
2022-08-17T10:45:29.681Z,17.48
2022-08-17T10:48:06.131Z,18.20
2022-08-17T10:50:58.006Z,17.98
2022-08-17T10:53:33.901Z,18.13
2022-08-17T10:56:12.731Z,17.29
2022-08-17T10:58:56.292Z,17.92
2022-08-17T11:01:29.542Z,18.50
2022-08-17T11:03:59.484Z,20.23
2022-08-17T11:06:38.122Z,20.17
2022-08-17T11:09:11.130Z,20.50
2022-08-17T11:12:10.686Z,20.25
2022-08-17T11:14:55.191Z,21.36
2022-08-17T11:17:41.548Z,22.03
2022-08-17T11:20:20.452Z,24.53
2022-08-17T11:23:13.527Z,24.80
2022-08-17T11:25:47.031Z,23.10
2022-08-17T11:28:26.949Z,24.05
2022-08-17T11:30:57.934Z,23.72
2022-08-17T11:33:36.724Z,23.40
2022-08-17T11:36:16.699Z,23.37
2022-08-17T11:39:18.783Z,23.45
2022-08-17T11:42:20.142Z,23.49
2022-08-17T11:45:31.788Z,24.84
2022-08-17T11:48:54.614Z,23.01
2022-08-17T11:51:33.908Z,23.77
2022-08-17T11:54:34.872Z,24.38
2022-08-17T11:57:27.791Z,25.40
2022-08-17T11:59:58.541Z,26.89
2022-08-17T12:02:32.349Z,27.53
2022-08-17T12:05:14.531Z,28.87
2022-08-17T12:07:52.050Z,34.02
2022-08-17T12:10:30.081Z,31.31
2022-08-17T12:12:59.097Z,32.30
2022-08-17T12:15:31.164Z,34.93
2022-08-17T12:17:59.191Z,38.47
2022-08-17T12:20:38.827Z,52.12
2022-08-17T12:23:28.622Z,51.51
2022-08-17T12:26:07.898Z,49.17
2022-08-17T12:28:38.799Z,45.35
2022-08-17T12:31:34.719Z,45.70
2022-08-17T12:34:04.682Z,39.07
2022-08-17T12:36:33.802Z,35.66
2022-08-17T12:39:14.011Z,40.81
2022-08-17T12:41:47.204Z,41.27
2022-08-17T12:44:24.437Z,44.17
2022-08-17T12:46:51.555Z,47.82
2022-08-17T12:49:30.793Z,48.34
2022-08-17T12:52:06.687Z,48.41
2022-08-17T12:54:48.297Z,47.07
2022-08-17T12:57:22.750Z,43.86
2022-08-17T12:59:59.328Z,43.38
2022-08-17T13:02:39.209Z,43.00
2022-08-17T13:05:08.817Z,41.99
2022-08-17T13:07:44.920Z,42.84
2022-08-17T13:10:31.632Z,43.27
2022-08-17T13:13:06.068Z,42.66
2022-08-17T13:15:57.253Z,41.24
2022-08-17T13:18:33.282Z,41.09
2022-08-17T13:21:01.174Z,42.14
2022-08-17T13:23:32.364Z,42.98
2022-08-17T13:26:09.520Z,43.42
2022-08-17T13:28:37.681Z,40.92
2022-08-17T13:31:27.892Z,40.09
2022-08-17T13:34:13.193Z,38.21
2022-08-17T13:36:40.628Z,36.82
2022-08-17T13:39:23.402Z,35.59
2022-08-17T13:41:53.916Z,34.79
2022-08-17T13:44:39.363Z,34.56
2022-08-17T13:47:17.300Z,34.88
2022-08-17T13:49:49.221Z,34.43
2022-08-17T13:52:40.005Z,34.47
2022-08-17T13:55:19.816Z,34.67
2022-08-17T13:58:03.618Z,35.05
2022-08-17T14:00:36.530Z,34.41
2022-08-17T14:03:05.455Z,34.88
2022-08-17T14:05:33.871Z,34.63
2022-08-17T14:08:06.937Z,34.95
2022-08-17T14:10:36.604Z,35.68
2022-08-17T14:13:04.657Z,33.59
2022-08-17T14:15:55.223Z,34.98
2022-08-17T14:18:55.494Z,34.73
2022-08-17T14:21:08.534Z,34.38
2022-08-17T14:23:37.172Z,34.25
2022-08-17T14:26:04.777Z,34.57
2022-08-17T14:28:32.083Z,33.32
2022-08-17T14:31:00.889Z,33.10
2022-08-17T14:33:29.342Z,32.00
2022-08-17T14:35:57.680Z,31.75
2022-08-17T14:38:25.321Z,30.90
2022-08-17T14:40:52.295Z,31.27
2022-08-17T14:43:21.006Z,31.17
2022-08-17T14:45:48.015Z,30.25
2022-08-17T14:48:15.234Z,31.13
2022-08-17T14:50:44.258Z,31.64
2022-08-17T14:53:13.689Z,31.85
2022-08-17T14:55:40.783Z,32.30
2022-08-17T14:58:09.166Z,32.54
2022-08-17T15:00:37.459Z,33.47
2022-08-17T15:03:05.410Z,33.94
2022-08-17T15:05:35.190Z,34.14
2022-08-17T15:08:03.116Z,34.65
2022-08-17T15:10:30.807Z,34.41
2022-08-17T15:12:57.887Z,34.25
2022-08-17T15:15:25.090Z,33.55
2022-08-17T15:17:52.105Z,33.26
2022-08-17T15:20:21.801Z,33.12
2022-08-17T15:22:49.975Z,33.77
2022-08-17T15:25:19.236Z,33.55
2022-08-17T15:27:47.509Z,34.08
2022-08-17T15:30:15.390Z,35.68
2022-08-17T15:32:47.520Z,36.38
2022-08-17T15:35:27.498Z,36.62
2022-08-17T15:38:06.261Z,37.30
2022-08-17T15:40:39.925Z,37.31
2022-08-17T15:43:14.748Z,36.50
2022-08-17T15:45:42.303Z,36.92
2022-08-17T15:48:09.388Z,37.64
2022-08-17T15:50:36.541Z,39.21
2022-08-17T15:53:05.034Z,40.50
2022-08-17T15:55:32.908Z,40.77
2022-08-17T15:58:00.515Z,41.18
2022-08-17T16:00:29.317Z,42.04
2022-08-17T16:03:45.010Z,42.96
2022-08-17T16:05:47.387Z,43.03
2022-08-17T16:08:20.036Z,44.68
2022-08-17T16:10:48.737Z,44.04
2022-08-17T16:13:17.193Z,44.63
2022-08-17T16:15:51.134Z,45.20
2022-08-17T16:18:31.089Z,44.27
2022-08-17T16:21:20.114Z,44.68
2022-08-17T16:23:50.099Z,43.83
2022-08-17T16:26:18.534Z,43.11
2022-08-17T16:28:47.009Z,42.69
2022-08-17T16:31:14.701Z,43.50
2022-08-17T16:33:42.418Z,43.63
2022-08-17T16:36:29.631Z,43.39
2022-08-17T16:38:57.180Z,44.16
2022-08-17T16:41:42.440Z,44.64
2022-08-17T16:44:09.470Z,45.11
2022-08-17T16:46:45.571Z,46.79
2022-08-17T16:49:35.225Z,47.87
2022-08-17T16:52:03.374Z,48.26
2022-08-17T16:54:30.444Z,50.12
2022-08-17T16:56:57.432Z,50.60
2022-08-17T16:59:31.721Z,51.16
2022-08-17T17:02:12.411Z,50.90
2022-08-17T17:04:47.577Z,49.09
2022-08-17T17:07:25.918Z,48.75
2022-08-17T17:09:55.564Z,48.49
2022-08-17T17:12:59.514Z,47.65
2022-08-17T17:15:12.060Z,47.20
2022-08-17T17:17:40.341Z,46.99
2022-08-17T17:20:26.274Z,46.73
2022-08-17T17:23:18.478Z,48.32
2022-08-17T17:25:48.828Z,48.79
2022-08-17T17:28:26.718Z,48.00
2022-08-17T17:30:53.721Z,48.64
2022-08-17T17:33:48.674Z,49.03
2022-08-17T17:36:38.482Z,48.92
2022-08-17T17:39:12.149Z,48.66
2022-08-17T17:41:44.358Z,50.38
2022-08-17T17:44:15.362Z,49.98
2022-08-17T17:46:52.255Z,50.87
2022-08-17T17:49:20.368Z,50.84
2022-08-17T17:52:11.094Z,51.44
2022-08-17T17:54:50.456Z,52.36
2022-08-17T17:57:55.955Z,53.07
2022-08-17T18:00:45.192Z,51.85
2022-08-17T18:03:26.469Z,51.18
2022-08-17T18:06:31.656Z,50.13
2022-08-17T18:09:33.874Z,51.47
2022-08-17T18:12:11.033Z,51.43
2022-08-17T18:14:46.668Z,50.84
2022-08-17T18:17:14.666Z,50.00
2022-08-17T18:19:41.672Z,50.45
2022-08-17T18:22:20.157Z,50.63
2022-08-17T18:24:56.539Z,49.83
2022-08-17T18:27:28.736Z,48.97
2022-08-17T18:29:58.302Z,47.99
2022-08-17T18:32:33.690Z,46.62
2022-08-17T18:35:09.755Z,46.13
2022-08-17T18:37:47.840Z,46.34
2022-08-17T18:40:17.953Z,46.29
2022-08-17T18:42:46.470Z,46.88
2022-08-17T18:45:30.551Z,47.89
2022-08-17T18:47:58.002Z,48.45
2022-08-17T18:50:37.011Z,46.96
2022-08-17T18:53:34.642Z,47.06
2022-08-17T18:56:49.534Z,51.06
2022-08-17T18:59:39.484Z,50.38
2022-08-17T19:02:21.594Z,50.40
2022-08-17T19:05:07.572Z,52.00
2022-08-17T19:07:39.445Z,53.29
2022-08-17T19:10:31.891Z,52.13
2022-08-17T19:13:24.119Z,52.39
2022-08-17T19:16:12.160Z,53.53
2022-08-17T19:18:58.817Z,52.62
2022-08-17T19:21:34.559Z,52.62
2022-08-17T19:24:30.120Z,52.44
2022-08-17T19:27:15.382Z,54.62
2022-08-17T19:29:53.780Z,55.96
2022-08-17T19:32:29.293Z,54.01
2022-08-17T19:34:57.296Z,53.93
2022-08-17T19:37:29.840Z,53.75
2022-08-17T19:40:50.571Z,52.65
2022-08-17T19:43:37.047Z,51.87
2022-08-17T19:46:06.200Z,51.95
2022-08-17T19:48:57.844Z,52.00
2022-08-17T19:51:36.180Z,53.25
2022-08-17T19:54:31.304Z,54.30
2022-08-17T19:57:17.095Z,54.86
2022-08-17T19:59:51.123Z,53.29
2022-08-17T20:02:28.419Z,53.96
2022-08-17T20:05:02.317Z,54.13
2022-08-17T20:07:43.309Z,54.13
2022-08-17T20:10:29.003Z,53.51
2022-08-17T20:13:03.178Z,52.51
2022-08-17T20:15:34.438Z,53.00
2022-08-17T20:18:05.834Z,53.89
2022-08-17T20:20:41.931Z,52.48
2022-08-17T20:23:26.095Z,51.05
2022-08-17T20:26:13.029Z,51.55
2022-08-17T20:29:05.568Z,51.76
2022-08-17T20:31:55.729Z,51.63
2022-08-17T20:34:33.395Z,52.03
2022-08-17T20:37:15.734Z,52.11
2022-08-17T20:39:52.634Z,51.88
2022-08-17T20:42:22.363Z,51.29
2022-08-17T20:44:52.917Z,51.42
2022-08-17T20:47:30.571Z,52.19
2022-08-17T20:50:07.326Z,52.80
2022-08-17T20:52:49.340Z,53.03
2022-08-17T20:55:51.160Z,53.35
2022-08-17T20:58:30.649Z,54.47
2022-08-17T21:00:59.052Z,54.88
2022-08-17T21:03:39.941Z,54.82
2022-08-17T21:06:18.607Z,55.68
2022-08-17T21:08:53.935Z,55.60
2022-08-17T21:12:02.994Z,54.87
2022-08-17T21:14:36.746Z,54.82
2022-08-17T21:17:18.944Z,54.92
2022-08-17T21:20:12.703Z,56.12
2022-08-17T21:23:03.707Z,56.50
2022-08-17T21:25:39.936Z,56.85
2022-08-17T21:28:15.597Z,57.73
2022-08-17T21:30:59.316Z,58.77
2022-08-17T21:33:33.882Z,58.93
2022-08-17T21:36:00.899Z,60.04
2022-08-17T21:38:57.815Z,60.34
2022-08-17T21:41:33.515Z,60.54
2022-08-17T21:44:12.333Z,59.86
2022-08-17T21:46:46.480Z,59.16
2022-08-17T21:49:16.935Z,59.35
2022-08-17T21:51:56.250Z,58.57
2022-08-17T21:54:35.596Z,58.97
2022-08-17T21:57:06.657Z,60.02
2022-08-17T21:59:37.870Z,60.09
2022-08-17T22:02:16.904Z,62.66
2022-08-17T22:05:00.513Z,63.33
2022-08-17T22:08:00.073Z,62.47
2022-08-17T22:10:51.450Z,62.79
2022-08-17T22:13:18.421Z,63.23
2022-08-17T22:15:49.777Z,64.28
2022-08-17T22:18:27.644Z,64.18
2022-08-17T22:21:02.591Z,64.13
2022-08-17T22:23:52.420Z,64.32
2022-08-17T22:26:22.660Z,65.58
2022-08-17T22:28:52.921Z,64.18
2022-08-17T22:31:23.207Z,63.88
2022-08-17T22:34:02.346Z,63.52
2022-08-17T22:36:30.038Z,64.28
2022-08-17T22:39:01.805Z,63.83
2022-08-17T22:41:52.198Z,63.87
2022-08-17T22:44:36.646Z,65.02
2022-08-17T22:47:11.375Z,65.93
2022-08-17T22:49:53.648Z,65.98
2022-08-17T22:52:32.635Z,66.80
2022-08-17T22:55:26.632Z,66.83
2022-08-17T22:58:12.173Z,64.74
2022-08-17T23:00:45.688Z,65.76
2022-08-17T23:03:19.299Z,66.27
2022-08-17T23:06:08.464Z,62.46
2022-08-17T23:08:57.937Z,64.23
2022-08-17T23:11:36.902Z,64.24
2022-08-17T23:14:18.498Z,65.94
2022-08-17T23:16:45.800Z,66.97
2022-08-17T23:19:16.417Z,67.23
2022-08-17T23:21:47.345Z,69.97
2022-08-17T23:24:21.488Z,68.25
2022-08-17T23:26:49.068Z,69.03
2022-08-17T23:29:16.169Z,71.64
2022-08-17T23:31:43.282Z,72.32
2022-08-17T23:34:13.208Z,72.29
2022-08-17T23:36:40.781Z,73.61
2022-08-17T23:39:08.024Z,74.18
2022-08-17T23:41:38.839Z,74.71
2022-08-17T23:44:06.747Z,71.84
2022-08-17T23:46:34.791Z,71.29
2022-08-17T23:49:01.942Z,71.19
2022-08-17T23:51:34.726Z,70.57
2022-08-17T23:54:08.342Z,72.19
2022-08-17T23:56:42.165Z,73.28
2022-08-17T23:59:09.594Z,73.86
